sensor_id;sensor_type;location;lat;lon;timestamp;temperature;humidity
17128;DHT22;8679;50.842;4.322;2023-07-28T00:02:08;18.10;99.90
17128;DHT22;8679;50.842;4.322;2023-07-28T00:04:34;18.10;99.90
17128;DHT22;8679;50.842;4.322;2023-07-28T00:07:00;18.20;99.90
17128;DHT22;8679;50.842;4.322;2023-07-28T00:09:26;18.20;99.90
17128;DHT22;8679;50.842;4.322;2023-07-28T00:11:51;18.20;99.90
17128;DHT22;8679;50.842;4.322;2023-07-28T00:14:17;18.10;99.90
17128;DHT22;8679;50.842;4.322;2023-07-28T00:16:43;18.10;99.90
17128;DHT22;8679;50.842;4.322;2023-07-28T00:19:08;18.20;99.90
17128;DHT22;8679;50.842;4.322;2023-07-28T00:21:34;18.20;99.90
17128;DHT22;8679;50.842;4.322;2023-07-28T00:24:00;18.20;99.90
17128;DHT22;8679;50.842;4.322;2023-07-28T00:26:25;18.20;99.90
17128;DHT22;8679;50.842;4.322;2023-07-28T00:28:51;18.20;99.90
17128;DHT22;8679;50.842;4.322;2023-07-28T00:31:16;18.20;99.90
17128;DHT22;8679;50.842;4.322;2023-07-28T00:33:42;18.20;99.90
17128;DHT22;8679;50.842;4.322;2023-07-28T00:36:08;18.20;99.90
17128;DHT22;8679;50.842;4.322;2023-07-28T00:38:33;18.20;99.90
17128;DHT22;8679;50.842;4.322;2023-07-28T00:40:59;18.20;99.90
17128;DHT22;8679;50.842;4.322;2023-07-28T00:43:25;18.20;99.90
17128;DHT22;8679;50.842;4.322;2023-07-28T00:45:51;18.20;99.90
17128;DHT22;8679;50.842;4.322;2023-07-28T00:48:17;18.30;99.90
17128;DHT22;8679;50.842;4.322;2023-07-28T00:50:45;18.20;99.90
17128;DHT22;8679;50.842;4.322;2023-07-28T00:53:11;18.30;99.90
17128;DHT22;8679;50.842;4.322;2023-07-28T00:55:37;18.20;99.90
17128;DHT22;8679;50.842;4.322;2023-07-28T00:58:03;18.30;99.90
17128;DHT22;8679;50.842;4.322;2023-07-28T01:00:30;18.20;99.90
17128;DHT22;8679;50.842;4.322;2023-07-28T01:02:56;18.20;99.90
17128;DHT22;8679;50.842;4.322;2023-07-28T01:05:30;18.30;99.90
17128;DHT22;8679;50.842;4.322;2023-07-28T01:08:53;18.30;99.90
17128;DHT22;8679;50.842;4.322;2023-07-28T01:10:53;18.20;99.90
17128;DHT22;8679;50.842;4.322;2023-07-28T01:13:19;18.30;99.90
17128;DHT22;8679;50.842;4.322;2023-07-28T01:15:44;18.30;99.90
17128;DHT22;8679;50.842;4.322;2023-07-28T01:18:10;18.20;99.90
17128;DHT22;8679;50.842;4.322;2023-07-28T01:20:38;18.20;99.90
17128;DHT22;8679;50.842;4.322;2023-07-28T01:23:20;18.20;99.90
17128;DHT22;8679;50.842;4.322;2023-07-28T01:26:09;18.20;99.90
17128;DHT22;8679;50.842;4.322;2023-07-28T01:28:37;18.20;99.90
17128;DHT22;8679;50.842;4.322;2023-07-28T01:31:04;18.20;99.90
17128;DHT22;8679;50.842;4.322;2023-07-28T01:33:30;18.10;99.90
17128;DHT22;8679;50.842;4.322;2023-07-28T01:35:56;18.10;99.90
17128;DHT22;8679;50.842;4.322;2023-07-28T01:38:24;18.10;99.90
17128;DHT22;8679;50.842;4.322;2023-07-28T01:40:49;18.10;99.90
17128;DHT22;8679;50.842;4.322;2023-07-28T01:43:15;18.10;99.90
17128;DHT22;8679;50.842;4.322;2023-07-28T01:45:40;18.10;99.90
17128;DHT22;8679;50.842;4.322;2023-07-28T01:48:06;18.10;99.90
17128;DHT22;8679;50.842;4.322;2023-07-28T01:50:35;18.10;99.90
17128;DHT22;8679;50.842;4.322;2023-07-28T01:53:01;18.10;99.90
17128;DHT22;8679;50.842;4.322;2023-07-28T01:55:27;18.10;99.90
17128;DHT22;8679;50.842;4.322;2023-07-28T01:57:58;18.10;99.90
17128;DHT22;8679;50.842;4.322;2023-07-28T02:00:24;18.00;99.90
17128;DHT22;8679;50.842;4.322;2023-07-28T02:02:49;18.00;99.90
17128;DHT22;8679;50.842;4.322;2023-07-28T02:05:15;18.10;99.90
17128;DHT22;8679;50.842;4.322;2023-07-28T02:07:42;18.00;99.90
17128;DHT22;8679;50.842;4.322;2023-07-28T02:10:08;18.00;99.90
17128;DHT22;8679;50.842;4.322;2023-07-28T02:12:33;18.00;99.90
17128;DHT22;8679;50.842;4.322;2023-07-28T02:14:59;18.10;99.90
17128;DHT22;8679;50.842;4.322;2023-07-28T02:17:25;18.00;99.90
17128;DHT22;8679;50.842;4.322;2023-07-28T02:19:51;18.00;99.90
17128;DHT22;8679;50.842;4.322;2023-07-28T02:22:17;18.10;99.90
17128;DHT22;8679;50.842;4.322;2023-07-28T02:24:42;18.10;99.90
17128;DHT22;8679;50.842;4.322;2023-07-28T02:27:08;18.10;99.90
17128;DHT22;8679;50.842;4.322;2023-07-28T02:29:34;18.10;99.90
17128;DHT22;8679;50.842;4.322;2023-07-28T02:31:59;18.10;99.90
17128;DHT22;8679;50.842;4.322;2023-07-28T02:34:25;18.10;99.90
17128;DHT22;8679;50.842;4.322;2023-07-28T02:36:51;18.00;99.90
17128;DHT22;8679;50.842;4.322;2023-07-28T02:39:16;18.10;99.90
17128;DHT22;8679;50.842;4.322;2023-07-28T02:41:42;18.00;99.90
17128;DHT22;8679;50.842;4.322;2023-07-28T02:44:08;18.10;99.90
17128;DHT22;8679;50.842;4.322;2023-07-28T02:46:34;18.00;99.90
17128;DHT22;8679;50.842;4.322;2023-07-28T02:48:59;18.00;99.90
17128;DHT22;8679;50.842;4.322;2023-07-28T02:51:25;18.00;99.90
17128;DHT22;8679;50.842;4.322;2023-07-28T02:53:51;18.00;99.90
17128;DHT22;8679;50.842;4.322;2023-07-28T02:56:16;18.00;99.90
17128;DHT22;8679;50.842;4.322;2023-07-28T02:58:42;18.00;99.90
17128;DHT22;8679;50.842;4.322;2023-07-28T03:01:07;18.00;99.90
17128;DHT22;8679;50.842;4.322;2023-07-28T03:03:33;18.00;99.90
17128;DHT22;8679;50.842;4.322;2023-07-28T03:05:59;18.00;99.90
17128;DHT22;8679;50.842;4.322;2023-07-28T03:08:24;18.00;99.90
17128;DHT22;8679;50.842;4.322;2023-07-28T03:10:50;18.00;99.90
17128;DHT22;8679;50.842;4.322;2023-07-28T03:13:15;17.90;99.90
17128;DHT22;8679;50.842;4.322;2023-07-28T03:15:41;17.90;99.90
17128;DHT22;8679;50.842;4.322;2023-07-28T03:18:07;18.00;99.90
17128;DHT22;8679;50.842;4.322;2023-07-28T03:20:32;18.00;99.90
17128;DHT22;8679;50.842;4.322;2023-07-28T03:22:58;18.00;99.90
17128;DHT22;8679;50.842;4.322;2023-07-28T03:25:24;17.90;99.90
17128;DHT22;8679;50.842;4.322;2023-07-28T03:27:49;18.00;99.90
17128;DHT22;8679;50.842;4.322;2023-07-28T03:30:15;17.90;99.90
17128;DHT22;8679;50.842;4.322;2023-07-28T03:32:41;18.00;99.90
17128;DHT22;8679;50.842;4.322;2023-07-28T03:35:07;17.90;99.90
17128;DHT22;8679;50.842;4.322;2023-07-28T03:37:33;17.90;99.90
17128;DHT22;8679;50.842;4.322;2023-07-28T03:39:59;17.90;99.90
17128;DHT22;8679;50.842;4.322;2023-07-28T03:42:25;18.00;99.90
17128;DHT22;8679;50.842;4.322;2023-07-28T03:44:52;17.90;99.90
17128;DHT22;8679;50.842;4.322;2023-07-28T03:47:17;18.00;99.90
17128;DHT22;8679;50.842;4.322;2023-07-28T03:49:43;18.00;99.90
17128;DHT22;8679;50.842;4.322;2023-07-28T03:52:09;18.00;99.90
17128;DHT22;8679;50.842;4.322;2023-07-28T03:54:34;18.00;99.90
17128;DHT22;8679;50.842;4.322;2023-07-28T03:57:00;18.00;99.90
17128;DHT22;8679;50.842;4.322;2023-07-28T03:59:25;18.00;99.90
17128;DHT22;8679;50.842;4.322;2023-07-28T04:01:51;18.00;99.90
17128;DHT22;8679;50.842;4.322;2023-07-28T04:04:18;18.00;99.90
17128;DHT22;8679;50.842;4.322;2023-07-28T04:06:48;18.00;99.90
17128;DHT22;8679;50.842;4.322;2023-07-28T04:09:18;18.00;99.90
17128;DHT22;8679;50.842;4.322;2023-07-28T04:11:44;18.00;99.90
17128;DHT22;8679;50.842;4.322;2023-07-28T04:14:10;18.00;99.90
17128;DHT22;8679;50.842;4.322;2023-07-28T04:16:36;18.00;99.90
17128;DHT22;8679;50.842;4.322;2023-07-28T04:19:01;18.00;99.90
17128;DHT22;8679;50.842;4.322;2023-07-28T04:21:27;18.10;99.90
17128;DHT22;8679;50.842;4.322;2023-07-28T04:23:53;18.10;99.90
17128;DHT22;8679;50.842;4.322;2023-07-28T04:26:18;18.10;99.90
17128;DHT22;8679;50.842;4.322;2023-07-28T04:28:44;18.10;99.90
17128;DHT22;8679;50.842;4.322;2023-07-28T04:31:11;18.10;99.90
17128;DHT22;8679;50.842;4.322;2023-07-28T04:33:38;18.10;99.90
17128;DHT22;8679;50.842;4.322;2023-07-28T04:36:04;18.20;99.90
17128;DHT22;8679;50.842;4.322;2023-07-28T04:38:29;18.20;99.90
17128;DHT22;8679;50.842;4.322;2023-07-28T04:40:55;18.20;99.90
17128;DHT22;8679;50.842;4.322;2023-07-28T04:43:20;18.20;99.90
17128;DHT22;8679;50.842;4.322;2023-07-28T04:45:46;18.20;99.90
17128;DHT22;8679;50.842;4.322;2023-07-28T04:48:12;18.20;99.90
17128;DHT22;8679;50.842;4.322;2023-07-28T04:50:37;18.20;99.90
17128;DHT22;8679;50.842;4.322;2023-07-28T04:53:03;18.20;99.90
17128;DHT22;8679;50.842;4.322;2023-07-28T04:55:29;18.20;99.90
17128;DHT22;8679;50.842;4.322;2023-07-28T04:57:55;18.20;99.90
17128;DHT22;8679;50.842;4.322;2023-07-28T05:00:21;18.20;99.90
17128;DHT22;8679;50.842;4.322;2023-07-28T05:02:47;18.20;99.90
17128;DHT22;8679;50.842;4.322;2023-07-28T05:05:12;18.20;99.90
17128;DHT22;8679;50.842;4.322;2023-07-28T05:07:38;18.20;99.90
17128;DHT22;8679;50.842;4.322;2023-07-28T05:10:04;18.20;99.90
17128;DHT22;8679;50.842;4.322;2023-07-28T05:12:30;18.20;99.90
17128;DHT22;8679;50.842;4.322;2023-07-28T05:14:55;18.20;99.90
17128;DHT22;8679;50.842;4.322;2023-07-28T05:17:21;18.20;99.90
17128;DHT22;8679;50.842;4.322;2023-07-28T05:19:47;18.20;99.90
17128;DHT22;8679;50.842;4.322;2023-07-28T05:22:12;18.20;99.90
17128;DHT22;8679;50.842;4.322;2023-07-28T05:24:38;18.20;99.90
17128;DHT22;8679;50.842;4.322;2023-07-28T05:27:04;18.20;99.90
17128;DHT22;8679;50.842;4.322;2023-07-28T05:29:29;18.20;99.90
17128;DHT22;8679;50.842;4.322;2023-07-28T05:31:55;18.20;99.90
17128;DHT22;8679;50.842;4.322;2023-07-28T05:34:21;18.20;99.90
17128;DHT22;8679;50.842;4.322;2023-07-28T05:36:46;18.30;99.90
17128;DHT22;8679;50.842;4.322;2023-07-28T05:39:12;18.30;99.90
17128;DHT22;8679;50.842;4.322;2023-07-28T05:41:37;18.30;99.90
17128;DHT22;8679;50.842;4.322;2023-07-28T05:44:03;18.30;99.90
17128;DHT22;8679;50.842;4.322;2023-07-28T05:46:29;18.30;99.90
17128;DHT22;8679;50.842;4.322;2023-07-28T05:48:56;18.30;99.90
17128;DHT22;8679;50.842;4.322;2023-07-28T05:51:22;18.40;99.90
17128;DHT22;8679;50.842;4.322;2023-07-28T05:53:49;18.40;99.90
17128;DHT22;8679;50.842;4.322;2023-07-28T05:56:15;18.30;99.90
17128;DHT22;8679;50.842;4.322;2023-07-28T05:58:40;18.30;99.90
17128;DHT22;8679;50.842;4.322;2023-07-28T06:01:06;18.30;99.90
17128;DHT22;8679;50.842;4.322;2023-07-28T06:03:31;18.30;99.90
17128;DHT22;8679;50.842;4.322;2023-07-28T06:05:57;18.40;99.90
17128;DHT22;8679;50.842;4.322;2023-07-28T06:08:23;18.50;99.90
17128;DHT22;8679;50.842;4.322;2023-07-28T06:10:49;18.40;99.90
17128;DHT22;8679;50.842;4.322;2023-07-28T06:13:14;18.40;99.90
17128;DHT22;8679;50.842;4.322;2023-07-28T06:15:41;18.40;99.90
17128;DHT22;8679;50.842;4.322;2023-07-28T06:18:07;18.50;99.90
17128;DHT22;8679;50.842;4.322;2023-07-28T06:20:33;18.50;99.90
17128;DHT22;8679;50.842;4.322;2023-07-28T06:23:00;18.60;99.90
17128;DHT22;8679;50.842;4.322;2023-07-28T06:25:25;18.60;99.90
17128;DHT22;8679;50.842;4.322;2023-07-28T06:27:51;18.70;99.90
17128;DHT22;8679;50.842;4.322;2023-07-28T06:30:17;18.80;99.90
17128;DHT22;8679;50.842;4.322;2023-07-28T06:32:42;18.90;99.90
17128;DHT22;8679;50.842;4.322;2023-07-28T06:35:08;18.90;99.90
17128;DHT22;8679;50.842;4.322;2023-07-28T06:37:36;18.90;99.90
17128;DHT22;8679;50.842;4.322;2023-07-28T06:40:06;19.00;99.90
17128;DHT22;8679;50.842;4.322;2023-07-28T06:42:34;19.00;99.90
17128;DHT22;8679;50.842;4.322;2023-07-28T06:45:00;19.00;99.90
17128;DHT22;8679;50.842;4.322;2023-07-28T06:47:25;19.00;99.90
17128;DHT22;8679;50.842;4.322;2023-07-28T06:49:51;18.90;99.90
17128;DHT22;8679;50.842;4.322;2023-07-28T06:52:17;18.90;99.90
17128;DHT22;8679;50.842;4.322;2023-07-28T06:54:42;18.80;99.90
17128;DHT22;8679;50.842;4.322;2023-07-28T06:57:08;18.80;99.90
17128;DHT22;8679;50.842;4.322;2023-07-28T06:59:34;18.80;99.90
17128;DHT22;8679;50.842;4.322;2023-07-28T07:01:59;18.80;99.90
17128;DHT22;8679;50.842;4.322;2023-07-28T07:04:25;18.90;99.90
17128;DHT22;8679;50.842;4.322;2023-07-28T07:06:51;18.90;99.90
17128;DHT22;8679;50.842;4.322;2023-07-28T07:09:16;19.00;99.90
17128;DHT22;8679;50.842;4.322;2023-07-28T07:11:42;19.00;99.90
17128;DHT22;8679;50.842;4.322;2023-07-28T07:14:08;19.00;99.90
17128;DHT22;8679;50.842;4.322;2023-07-28T07:16:34;19.00;99.90
17128;DHT22;8679;50.842;4.322;2023-07-28T07:19:00;19.10;99.90
17128;DHT22;8679;50.842;4.322;2023-07-28T07:21:27;19.10;99.90
17128;DHT22;8679;50.842;4.322;2023-07-28T07:23:53;19.20;99.90
17128;DHT22;8679;50.842;4.322;2023-07-28T07:26:19;19.30;99.90
17128;DHT22;8679;50.842;4.322;2023-07-28T07:28:44;19.40;99.90
17128;DHT22;8679;50.842;4.322;2023-07-28T07:31:14;19.40;99.90
17128;DHT22;8679;50.842;4.322;2023-07-28T07:33:40;19.40;99.90
17128;DHT22;8679;50.842;4.322;2023-07-28T07:36:05;19.40;99.90
17128;DHT22;8679;50.842;4.322;2023-07-28T07:38:31;19.60;99.90
17128;DHT22;8679;50.842;4.322;2023-07-28T07:40:57;19.70;99.90
17128;DHT22;8679;50.842;4.322;2023-07-28T07:43:22;19.70;99.90
17128;DHT22;8679;50.842;4.322;2023-07-28T07:45:48;19.80;99.90
17128;DHT22;8679;50.842;4.322;2023-07-28T07:48:15;19.80;99.90
17128;DHT22;8679;50.842;4.322;2023-07-28T07:50:41;19.80;99.90
17128;DHT22;8679;50.842;4.322;2023-07-28T07:53:06;20.00;99.90
17128;DHT22;8679;50.842;4.322;2023-07-28T07:55:32;20.00;99.90
17128;DHT22;8679;50.842;4.322;2023-07-28T07:57:58;20.20;99.90
17128;DHT22;8679;50.842;4.322;2023-07-28T08:00:23;20.20;99.90
17128;DHT22;8679;50.842;4.322;2023-07-28T08:02:49;20.20;99.90
17128;DHT22;8679;50.842;4.322;2023-07-28T08:05:15;20.10;99.90
17128;DHT22;8679;50.842;4.322;2023-07-28T08:07:41;20.00;99.90
17128;DHT22;8679;50.842;4.322;2023-07-28T08:10:07;20.00;99.90
17128;DHT22;8679;50.842;4.322;2023-07-28T08:12:33;19.90;99.90
17128;DHT22;8679;50.842;4.322;2023-07-28T08:14:59;19.90;99.90
17128;DHT22;8679;50.842;4.322;2023-07-28T08:17:25;19.80;99.90
17128;DHT22;8679;50.842;4.322;2023-07-28T08:19:50;19.80;99.90
17128;DHT22;8679;50.842;4.322;2023-07-28T08:22:16;20.00;99.90
17128;DHT22;8679;50.842;4.322;2023-07-28T08:24:42;20.00;99.90
17128;DHT22;8679;50.842;4.322;2023-07-28T08:27:07;20.10;99.90
17128;DHT22;8679;50.842;4.322;2023-07-28T08:29:33;20.10;99.90
17128;DHT22;8679;50.842;4.322;2023-07-28T08:31:59;20.00;99.90
17128;DHT22;8679;50.842;4.322;2023-07-28T08:34:24;20.00;99.90
17128;DHT22;8679;50.842;4.322;2023-07-28T08:36:50;19.90;99.90
17128;DHT22;8679;50.842;4.322;2023-07-28T08:39:17;19.80;99.90
17128;DHT22;8679;50.842;4.322;2023-07-28T08:41:43;19.80;99.90
17128;DHT22;8679;50.842;4.322;2023-07-28T08:44:09;19.80;99.90
17128;DHT22;8679;50.842;4.322;2023-07-28T08:46:35;19.80;99.90
17128;DHT22;8679;50.842;4.322;2023-07-28T08:49:01;19.90;99.90
17128;DHT22;8679;50.842;4.322;2023-07-28T08:51:27;20.00;99.90
17128;DHT22;8679;50.842;4.322;2023-07-28T08:53:52;20.00;99.90
17128;DHT22;8679;50.842;4.322;2023-07-28T08:56:18;20.00;99.90
17128;DHT22;8679;50.842;4.322;2023-07-28T08:58:44;20.00;99.90
17128;DHT22;8679;50.842;4.322;2023-07-28T09:01:11;20.00;99.90
17128;DHT22;8679;50.842;4.322;2023-07-28T09:03:39;19.80;99.90
17128;DHT22;8679;50.842;4.322;2023-07-28T09:06:06;19.70;99.90
17128;DHT22;8679;50.842;4.322;2023-07-28T09:08:35;19.60;99.90
17128;DHT22;8679;50.842;4.322;2023-07-28T09:11:05;19.60;99.90
17128;DHT22;8679;50.842;4.322;2023-07-28T09:13:37;19.60;99.90
17128;DHT22;8679;50.842;4.322;2023-07-28T09:16:04;19.50;99.90
17128;DHT22;8679;50.842;4.322;2023-07-28T09:18:29;19.50;99.90
17128;DHT22;8679;50.842;4.322;2023-07-28T09:20:55;19.50;99.90
17128;DHT22;8679;50.842;4.322;2023-07-28T09:23:29;19.60;99.90
17128;DHT22;8679;50.842;4.322;2023-07-28T09:26:01;19.60;99.90
17128;DHT22;8679;50.842;4.322;2023-07-28T09:28:40;19.70;99.90
17128;DHT22;8679;50.842;4.322;2023-07-28T09:31:07;19.80;99.90
17128;DHT22;8679;50.842;4.322;2023-07-28T09:33:34;20.00;99.90
17128;DHT22;8679;50.842;4.322;2023-07-28T09:36:15;20.10;99.90
17128;DHT22;8679;50.842;4.322;2023-07-28T09:38:42;20.40;99.90
17128;DHT22;8679;50.842;4.322;2023-07-28T09:41:09;20.50;99.90
17128;DHT22;8679;50.842;4.322;2023-07-28T09:43:40;20.60;99.90
17128;DHT22;8679;50.842;4.322;2023-07-28T09:46:08;20.60;99.90
17128;DHT22;8679;50.842;4.322;2023-07-28T09:48:34;20.60;99.90
17128;DHT22;8679;50.842;4.322;2023-07-28T09:51:14;20.70;99.90
17128;DHT22;8679;50.842;4.322;2023-07-28T09:53:46;20.80;99.90
17128;DHT22;8679;50.842;4.322;2023-07-28T09:56:14;20.90;99.90
17128;DHT22;8679;50.842;4.322;2023-07-28T09:58:44;20.90;99.90
17128;DHT22;8679;50.842;4.322;2023-07-28T10:01:12;20.90;99.90
17128;DHT22;8679;50.842;4.322;2023-07-28T10:03:38;20.90;99.90
17128;DHT22;8679;50.842;4.322;2023-07-28T10:06:05;20.90;99.90
17128;DHT22;8679;50.842;4.322;2023-07-28T10:08:32;20.90;99.90
17128;DHT22;8679;50.842;4.322;2023-07-28T10:11:04;21.10;99.90
17128;DHT22;8679;50.842;4.322;2023-07-28T10:13:40;21.10;99.90
17128;DHT22;8679;50.842;4.322;2023-07-28T10:16:09;21.10;99.90
17128;DHT22;8679;50.842;4.322;2023-07-28T10:18:35;21.30;99.90
17128;DHT22;8679;50.842;4.322;2023-07-28T10:21:09;21.40;99.90
17128;DHT22;8679;50.842;4.322;2023-07-28T10:23:39;21.40;99.90
17128;DHT22;8679;50.842;4.322;2023-07-28T10:26:05;21.50;99.90
17128;DHT22;8679;50.842;4.322;2023-07-28T10:28:34;21.40;99.90
17128;DHT22;8679;50.842;4.322;2023-07-28T10:31:08;21.40;99.90
17128;DHT22;8679;50.842;4.322;2023-07-28T10:33:35;21.50;99.90
17128;DHT22;8679;50.842;4.322;2023-07-28T10:39:20;21.80;99.90
17128;DHT22;8679;50.842;4.322;2023-07-28T10:42:05;21.90;99.90
17128;DHT22;8679;50.842;4.322;2023-07-28T10:44:32;22.10;99.90
17128;DHT22;8679;50.842;4.322;2023-07-28T10:46:58;22.00;99.90
17128;DHT22;8679;50.842;4.322;2023-07-28T10:49:25;21.80;99.90
17128;DHT22;8679;50.842;4.322;2023-07-28T10:51:51;21.70;99.90
17128;DHT22;8679;50.842;4.322;2023-07-28T10:54:16;21.70;99.90
17128;DHT22;8679;50.842;4.322;2023-07-28T10:56:46;21.70;99.90
17128;DHT22;8679;50.842;4.322;2023-07-28T10:59:12;21.50;99.90
17128;DHT22;8679;50.842;4.322;2023-07-28T11:01:39;21.60;99.90
17128;DHT22;8679;50.842;4.322;2023-07-28T11:04:15;21.60;99.90
17128;DHT22;8679;50.842;4.322;2023-07-28T11:06:45;21.50;99.90
17128;DHT22;8679;50.842;4.322;2023-07-28T11:09:12;21.60;99.90
17128;DHT22;8679;50.842;4.322;2023-07-28T11:11:40;21.60;99.90
17128;DHT22;8679;50.842;4.322;2023-07-28T11:14:08;21.80;99.90
17128;DHT22;8679;50.842;4.322;2023-07-28T11:16:36;21.80;99.90
17128;DHT22;8679;50.842;4.322;2023-07-28T11:19:03;21.70;99.90
17128;DHT22;8679;50.842;4.322;2023-07-28T11:21:29;21.80;99.90
17128;DHT22;8679;50.842;4.322;2023-07-28T11:23:56;21.80;99.90
17128;DHT22;8679;50.842;4.322;2023-07-28T11:26:22;21.80;99.90
17128;DHT22;8679;50.842;4.322;2023-07-28T11:28:48;22.10;99.90
17128;DHT22;8679;50.842;4.322;2023-07-28T11:31:14;22.10;99.90
17128;DHT22;8679;50.842;4.322;2023-07-28T11:33:42;22.30;99.90
17128;DHT22;8679;50.842;4.322;2023-07-28T11:36:08;22.50;99.90
17128;DHT22;8679;50.842;4.322;2023-07-28T11:38:34;22.60;99.90
17128;DHT22;8679;50.842;4.322;2023-07-28T11:41:02;22.70;99.90
17128;DHT22;8679;50.842;4.322;2023-07-28T11:43:28;22.50;99.90
17128;DHT22;8679;50.842;4.322;2023-07-28T11:45:54;22.30;99.90
17128;DHT22;8679;50.842;4.322;2023-07-28T11:48:19;22.00;99.90
17128;DHT22;8679;50.842;4.322;2023-07-28T11:50:46;21.90;99.90
17128;DHT22;8679;50.842;4.322;2023-07-28T11:53:12;22.10;99.90
17128;DHT22;8679;50.842;4.322;2023-07-28T11:55:38;22.10;57.80
17128;DHT22;8679;50.842;4.322;2023-07-28T11:58:05;22.30;83.20
17128;DHT22;8679;50.842;4.322;2023-07-28T12:00:36;22.60;25.00
17128;DHT22;8679;50.842;4.322;2023-07-28T12:03:12;22.70;1.00
17128;DHT22;8679;50.842;4.322;2023-07-28T12:05:39;22.90;1.00
17128;DHT22;8679;50.842;4.322;2023-07-28T12:08:06;23.00;1.00
17128;DHT22;8679;50.842;4.322;2023-07-28T12:10:33;22.90;1.00
17128;DHT22;8679;50.842;4.322;2023-07-28T12:13:07;22.80;1.00
17128;DHT22;8679;50.842;4.322;2023-07-28T12:15:33;22.90;1.00
17128;DHT22;8679;50.842;4.322;2023-07-28T12:18:10;22.90;1.00
17128;DHT22;8679;50.842;4.322;2023-07-28T12:20:39;23.10;1.00
17128;DHT22;8679;50.842;4.322;2023-07-28T12:23:06;23.30;1.00
17128;DHT22;8679;50.842;4.322;2023-07-28T12:25:32;23.60;1.00
17128;DHT22;8679;50.842;4.322;2023-07-28T12:27:58;23.80;1.00
17128;DHT22;8679;50.842;4.322;2023-07-28T12:30:23;23.90;99.90
17128;DHT22;8679;50.842;4.322;2023-07-28T12:32:49;23.90;99.90
17128;DHT22;8679;50.842;4.322;2023-07-28T12:35:15;23.70;1.00
17128;DHT22;8679;50.842;4.322;2023-07-28T12:37:41;23.50;99.90
17128;DHT22;8679;50.842;4.322;2023-07-28T12:40:07;23.50;1.00
17128;DHT22;8679;50.842;4.322;2023-07-28T12:42:34;23.60;1.00
17128;DHT22;8679;50.842;4.322;2023-07-28T12:44:59;23.60;1.00
17128;DHT22;8679;50.842;4.322;2023-07-28T12:47:25;23.60;1.00
17128;DHT22;8679;50.842;4.322;2023-07-28T12:49:51;23.60;99.90
17128;DHT22;8679;50.842;4.322;2023-07-28T12:52:17;23.60;1.00
17128;DHT22;8679;50.842;4.322;2023-07-28T12:54:42;23.70;1.00
17128;DHT22;8679;50.842;4.322;2023-07-28T12:57:09;23.60;1.00
17128;DHT22;8679;50.842;4.322;2023-07-28T12:59:36;23.70;1.00
17128;DHT22;8679;50.842;4.322;2023-07-28T13:02:02;23.90;1.00
17128;DHT22;8679;50.842;4.322;2023-07-28T13:04:28;24.40;1.00
17128;DHT22;8679;50.842;4.322;2023-07-28T13:06:54;24.70;99.90
17128;DHT22;8679;50.842;4.322;2023-07-28T13:09:20;24.60;77.40
17128;DHT22;8679;50.842;4.322;2023-07-28T13:11:46;24.70;1.00
17128;DHT22;8679;50.842;4.322;2023-07-28T13:14:11;24.60;1.00
17128;DHT22;8679;50.842;4.322;2023-07-28T13:16:37;24.30;1.00
17128;DHT22;8679;50.842;4.322;2023-07-28T13:19:04;24.10;1.00
17128;DHT22;8679;50.842;4.322;2023-07-28T13:21:31;24.00;1.00
17128;DHT22;8679;50.842;4.322;2023-07-28T13:23:57;23.70;1.00
17128;DHT22;8679;50.842;4.322;2023-07-28T13:26:23;23.60;1.00
17128;DHT22;8679;50.842;4.322;2023-07-28T13:28:48;23.50;1.00
17128;DHT22;8679;50.842;4.322;2023-07-28T13:31:17;23.50;1.00
17128;DHT22;8679;50.842;4.322;2023-07-28T13:33:44;23.50;1.00
17128;DHT22;8679;50.842;4.322;2023-07-28T13:36:12;23.80;1.00
17128;DHT22;8679;50.842;4.322;2023-07-28T13:38:38;24.40;1.00
17128;DHT22;8679;50.842;4.322;2023-07-28T13:41:09;24.80;1.00
17128;DHT22;8679;50.842;4.322;2023-07-28T13:43:34;25.00;1.00
17128;DHT22;8679;50.842;4.322;2023-07-28T13:46:02;25.00;1.00
17128;DHT22;8679;50.842;4.322;2023-07-28T13:48:28;24.90;1.00
17128;DHT22;8679;50.842;4.322;2023-07-28T13:50:53;25.20;1.00
17128;DHT22;8679;50.842;4.322;2023-07-28T13:53:19;25.60;1.00
17128;DHT22;8679;50.842;4.322;2023-07-28T13:55:45;25.30;1.00
17128;DHT22;8679;50.842;4.322;2023-07-28T13:58:10;25.10;99.90
17128;DHT22;8679;50.842;4.322;2023-07-28T14:00:36;24.70;99.90
17128;DHT22;8679;50.842;4.322;2023-07-28T14:03:02;24.50;1.00
17128;DHT22;8679;50.842;4.322;2023-07-28T14:05:28;24.20;1.00
17128;DHT22;8679;50.842;4.322;2023-07-28T14:07:53;24.10;1.00
17128;DHT22;8679;50.842;4.322;2023-07-28T14:10:19;23.90;1.00
17128;DHT22;8679;50.842;4.322;2023-07-28T14:12:44;23.80;1.00
17128;DHT22;8679;50.842;4.322;2023-07-28T14:15:10;23.80;1.00
17128;DHT22;8679;50.842;4.322;2023-07-28T14:17:36;23.80;1.00
17128;DHT22;8679;50.842;4.322;2023-07-28T14:20:01;24.00;1.00
17128;DHT22;8679;50.842;4.322;2023-07-28T14:22:27;24.10;1.00
17128;DHT22;8679;50.842;4.322;2023-07-28T14:24:53;24.20;1.00
17128;DHT22;8679;50.842;4.322;2023-07-28T14:27:18;24.40;1.00
17128;DHT22;8679;50.842;4.322;2023-07-28T14:29:46;24.70;1.00
17128;DHT22;8679;50.842;4.322;2023-07-28T14:32:14;24.90;1.00
17128;DHT22;8679;50.842;4.322;2023-07-28T14:34:40;25.50;1.00
17128;DHT22;8679;50.842;4.322;2023-07-28T14:37:06;25.90;1.00
17128;DHT22;8679;50.842;4.322;2023-07-28T14:39:32;26.40;99.90
17128;DHT22;8679;50.842;4.322;2023-07-28T14:41:57;27.00;99.90
17128;DHT22;8679;50.842;4.322;2023-07-28T14:44:23;27.00;99.90
17128;DHT22;8679;50.842;4.322;2023-07-28T14:46:48;27.70;99.90
17128;DHT22;8679;50.842;4.322;2023-07-28T14:49:14;28.00;99.90
17128;DHT22;8679;50.842;4.322;2023-07-28T14:51:40;27.50;75.80
17128;DHT22;8679;50.842;4.322;2023-07-28T14:54:05;27.60;1.00
17128;DHT22;8679;50.842;4.322;2023-07-28T14:56:31;28.10;1.00
17128;DHT22;8679;50.842;4.322;2023-07-28T15:20:58;28.10;1.00
17128;DHT22;8679;50.842;4.322;2023-07-28T15:23:25;26.60;1.00
17128;DHT22;8679;50.842;4.322;2023-07-28T15:25:53;26.60;1.00
17128;DHT22;8679;50.842;4.322;2023-07-28T15:28:22;26.40;1.00
17128;DHT22;8679;50.842;4.322;2023-07-28T15:30:48;26.30;1.00
17128;DHT22;8679;50.842;4.322;2023-07-28T15:33:17;26.40;1.00
17128;DHT22;8679;50.842;4.322;2023-07-28T15:35:44;26.50;1.00
17128;DHT22;8679;50.842;4.322;2023-07-28T15:38:10;26.20;1.00
17128;DHT22;8679;50.842;4.322;2023-07-28T15:40:36;26.10;1.00
17128;DHT22;8679;50.842;4.322;2023-07-28T15:43:01;26.40;1.00
17128;DHT22;8679;50.842;4.322;2023-07-28T15:45:27;26.50;1.00
17128;DHT22;8679;50.842;4.322;2023-07-28T15:47:53;27.80;1.00
17128;DHT22;8679;50.842;4.322;2023-07-28T15:50:18;29.60;1.00
17128;DHT22;8679;50.842;4.322;2023-07-28T15:52:44;29.50;99.90
17128;DHT22;8679;50.842;4.322;2023-07-28T15:55:11;28.60;99.90
17128;DHT22;8679;50.842;4.322;2023-07-28T15:57:36;27.70;99.90
17128;DHT22;8679;50.842;4.322;2023-07-28T16:00:02;27.20;99.90
17128;DHT22;8679;50.842;4.322;2023-07-28T16:02:29;26.80;99.90
17128;DHT22;8679;50.842;4.322;2023-07-28T16:04:55;26.50;99.90
17128;DHT22;8679;50.842;4.322;2023-07-28T16:07:20;26.30;1.00
17128;DHT22;8679;50.842;4.322;2023-07-28T16:09:48;25.90;1.00
17128;DHT22;8679;50.842;4.322;2023-07-28T16:12:14;26.30;1.00